Spangler, PA

11:30 PM EST del 22 novembre 2014 (GMT -0500)
Indiana County-Stewart | Change Station
CLOSE
Current Station
Aeroporto
Location: Indiana,
Altitudine: 1407 ft
Stazioni meteo nelle vicinanze

Alt. 1407 ft 40.63 °N, 79.11 °W | Updated 15 minutes ago

Coperto
Coperto
46 °F
Sembra 44 °F
N
5
Vento Variabile Vento da OSO

Oggi
Massima -- | Minima -- °F
--% Possibilità di precip.
Ieri
Massima -- | Minima -- °F
Precip. -- in
7:09 AM 4:52 PM
Luna nuova, 1% visible
Pressione 30.14 in
Visibilità 10.0 miglia
Nuvole Alcuni 5000 ft
Molto nuvoloso 6500 ft
Coperto 9500 ft
Raffreddamento del vento 44 °F
Punto di rugiada 32 °F
Umidità 57%
Piovosità 0.00 in
Spessore del manto nevoso Non disponibile.
Raggi UV 0 fuori da 12
Polline .10 fuori da 12
Qualità dell'aria Non disponibile.
Flu Activity Non disponibile.
METAR KIDI 230415Z AUTO 24004KT 10SM FEW050 BKN065 OVC095 08/00 A3014 RMK A01

More Conditions Fewer Conditions

Pressione 30.14 in
Visibilità 10.0 miglia
Nuvole Alcuni 5000 ft
Molto nuvoloso 6500 ft
Coperto 9500 ft
Raffreddamento del vento 44 °F
Punto di rugiada 32 °F
Umidità 57%
Piovosità 0.00 in
Spessore del manto nevoso Non disponibile.
Raggi UV 0 fuori da 12
Polline .10 fuori da 12
Qualità dell'aria Non disponibile.
Flu Activity Non disponibile.
METAR KIDI 230415Z AUTO 24004KT 10SM FEW050 BKN065 OVC095 08/00 A3014 RMK A01

More Conditions Fewer Conditions

Nowcast | as of 10:59 PM EST on November 22, 2014

Isolated...light rain showers will move east across the region through 1 am. Air temperatures have warmed above freezing in most locations...but ground temperatures may remain near the freezing mark in a few some spots. So watch out for possible slick roadways and surfaces if travelling tonight.

×

10-Day Weather Forecast

Almanac

Astronomia

Nov. 22, 2014 Alba Tramonto
Ora attuale
Crepuscolo civile
Crepuscolo nautico
Crepuscolo astronomico
Luna
Estensione della luce visibile
Lunghezza del giorno
Tomorrow will be .
, % of the Moon is Illuminated

Gli estremi di oggi

State Highs State Lows

Community

WunderPhotos

Upload Photos

1,773,002 foto caricate!

WunderBlogs® & News

Nearby

Qualità dell'aria

  Qualità dell'aria Indice AQ Inquinante
Not available.

Profondità neve

Stazione Profondità Altitudine

Attività sismica

Città  Distanza Mag. Data & Ora
Minimo Magnitudo Mostrato è 2.5.

Temperature delle acque costiere

Località Temperatura

Stazioni meteo nelle vicinanze